sensor_id;sensor_type;location;lat;lon;timestamp;temperature;humidity
19172;DHT22;9718;52.200;21.052;2023-02-11T00:00:40;2.50;99.90
19172;DHT22;9718;52.200;21.052;2023-02-11T00:03:23;2.60;99.90
19172;DHT22;9718;52.200;21.052;2023-02-11T00:06:02;2.50;99.90
19172;DHT22;9718;52.200;21.052;2023-02-11T00:08:29;2.70;99.90
19172;DHT22;9718;52.200;21.052;2023-02-11T00:10:57;2.60;99.90
19172;DHT22;9718;52.200;21.052;2023-02-11T00:13:24;2.60;99.90
19172;DHT22;9718;52.200;21.052;2023-02-11T00:15:53;2.60;99.90
19172;DHT22;9718;52.200;21.052;2023-02-11T00:18:20;2.60;99.90
19172;DHT22;9718;52.200;21.052;2023-02-11T00:20:48;2.60;99.90
19172;DHT22;9718;52.200;21.052;2023-02-11T00:23:15;2.70;99.90
19172;DHT22;9718;52.200;21.052;2023-02-11T00:25:43;2.50;99.90
19172;DHT22;9718;52.200;21.052;2023-02-11T00:28:11;2.50;99.90
19172;DHT22;9718;52.200;21.052;2023-02-11T00:30:39;2.60;99.90
19172;DHT22;9718;52.200;21.052;2023-02-11T00:33:06;2.70;99.90
19172;DHT22;9718;52.200;21.052;2023-02-11T00:35:36;2.70;99.90
19172;DHT22;9718;52.200;21.052;2023-02-11T00:38:04;2.80;99.90
19172;DHT22;9718;52.200;21.052;2023-02-11T00:40:31;2.70;99.90
19172;DHT22;9718;52.200;21.052;2023-02-11T00:42:58;2.70;99.90
19172;DHT22;9718;52.200;21.052;2023-02-11T00:45:25;2.80;99.90
19172;DHT22;9718;52.200;21.052;2023-02-11T00:47:52;2.70;99.90
19172;DHT22;9718;52.200;21.052;2023-02-11T00:50:20;2.70;99.90
19172;DHT22;9718;52.200;21.052;2023-02-11T00:52:47;2.60;99.90
19172;DHT22;9718;52.200;21.052;2023-02-11T00:55:15;2.50;99.90
19172;DHT22;9718;52.200;21.052;2023-02-11T00:57:42;2.50;99.90
19172;DHT22;9718;52.200;21.052;2023-02-11T01:00:12;2.50;99.90
19172;DHT22;9718;52.200;21.052;2023-02-11T01:02:39;2.40;99.90
19172;DHT22;9718;52.200;21.052;2023-02-11T01:05:07;2.50;99.90
19172;DHT22;9718;52.200;21.052;2023-02-11T01:07:34;2.40;99.90
19172;DHT22;9718;52.200;21.052;2023-02-11T01:10:01;2.40;99.90
19172;DHT22;9718;52.200;21.052;2023-02-11T01:12:30;2.30;99.90
19172;DHT22;9718;52.200;21.052;2023-02-11T01:14:59;2.30;99.90
19172;DHT22;9718;52.200;21.052;2023-02-11T01:17:26;2.30;99.90
19172;DHT22;9718;52.200;21.052;2023-02-11T01:19:53;2.30;99.90
19172;DHT22;9718;52.200;21.052;2023-02-11T01:22:20;2.30;99.90
19172;DHT22;9718;52.200;21.052;2023-02-11T01:24:48;2.20;99.90
19172;DHT22;9718;52.200;21.052;2023-02-11T01:27:15;2.20;99.90
19172;DHT22;9718;52.200;21.052;2023-02-11T01:29:42;2.20;99.90
19172;DHT22;9718;52.200;21.052;2023-02-11T01:32:09;2.20;99.90
19172;DHT22;9718;52.200;21.052;2023-02-11T01:34:36;2.10;99.90
19172;DHT22;9718;52.200;21.052;2023-02-11T01:37:03;2.20;99.90
19172;DHT22;9718;52.200;21.052;2023-02-11T01:39:33;2.20;99.90
19172;DHT22;9718;52.200;21.052;2023-02-11T01:42:00;2.20;99.90
19172;DHT22;9718;52.200;21.052;2023-02-11T01:46:59;2.20;99.90
19172;DHT22;9718;52.200;21.052;2023-02-11T01:49:30;2.30;99.90
19172;DHT22;9718;52.200;21.052;2023-02-11T01:52:06;2.30;99.90
19172;DHT22;9718;52.200;21.052;2023-02-11T01:54:41;2.30;99.90
19172;DHT22;9718;52.200;21.052;2023-02-11T01:57:31;2.40;99.90
19172;DHT22;9718;52.200;21.052;2023-02-11T02:00:16;2.50;99.90
19172;DHT22;9718;52.200;21.052;2023-02-11T02:08:18;2.40;99.90
19172;DHT22;9718;52.200;21.052;2023-02-11T02:10:49;2.40;99.90
19172;DHT22;9718;52.200;21.052;2023-02-11T02:13:20;2.50;99.90
19172;DHT22;9718;52.200;21.052;2023-02-11T02:16:13;2.50;99.90
19172;DHT22;9718;52.200;21.052;2023-02-11T02:21:23;2.60;99.90
19172;DHT22;9718;52.200;21.052;2023-02-11T02:32:43;2.50;99.90
19172;DHT22;9718;52.200;21.052;2023-02-11T02:38:22;2.50;99.90
19172;DHT22;9718;52.200;21.052;2023-02-11T02:41:05;2.50;99.90
19172;DHT22;9718;52.200;21.052;2023-02-11T02:43:37;2.50;99.90
19172;DHT22;9718;52.200;21.052;2023-02-11T02:46:12;2.50;99.90
19172;DHT22;9718;52.200;21.052;2023-02-11T02:48:40;2.50;99.90
19172;DHT22;9718;52.200;21.052;2023-02-11T02:59:23;2.60;99.90
19172;DHT22;9718;52.200;21.052;2023-02-11T03:10:41;2.60;99.90
19172;DHT22;9718;52.200;21.052;2023-02-11T03:13:10;2.60;99.90
19172;DHT22;9718;52.200;21.052;2023-02-11T03:15:42;2.50;99.90
19172;DHT22;9718;52.200;21.052;2023-02-11T03:18:13;2.50;99.90
19172;DHT22;9718;52.200;21.052;2023-02-11T03:20:43;2.60;99.90
19172;DHT22;9718;52.200;21.052;2023-02-11T03:23:28;2.50;99.90
19172;DHT22;9718;52.200;21.052;2023-02-11T03:26:05;2.50;99.90
19172;DHT22;9718;52.200;21.052;2023-02-11T03:31:33;2.60;99.90
19172;DHT22;9718;52.200;21.052;2023-02-11T03:34:10;2.60;99.90
19172;DHT22;9718;52.200;21.052;2023-02-11T03:36:44;2.60;99.90
19172;DHT22;9718;52.200;21.052;2023-02-11T03:39:20;2.60;99.90
19172;DHT22;9718;52.200;21.052;2023-02-11T03:41:49;2.60;99.90
19172;DHT22;9718;52.200;21.052;2023-02-11T03:44:18;2.60;99.90
19172;DHT22;9718;52.200;21.052;2023-02-11T03:46:49;2.50;99.90
19172;DHT22;9718;52.200;21.052;2023-02-11T03:49:18;2.60;99.90
19172;DHT22;9718;52.200;21.052;2023-02-11T03:51:50;2.60;99.90
19172;DHT22;9718;52.200;21.052;2023-02-11T03:54:23;2.50;99.90
19172;DHT22;9718;52.200;21.052;2023-02-11T03:56:54;2.60;99.90
19172;DHT22;9718;52.200;21.052;2023-02-11T03:59:21;2.60;99.90
19172;DHT22;9718;52.200;21.052;2023-02-11T04:01:49;2.60;99.90
19172;DHT22;9718;52.200;21.052;2023-02-11T04:04:16;2.70;99.90
19172;DHT22;9718;52.200;21.052;2023-02-11T04:06:44;2.70;99.90
19172;DHT22;9718;52.200;21.052;2023-02-11T04:09:11;2.60;99.90
19172;DHT22;9718;52.200;21.052;2023-02-11T04:11:39;2.60;99.90
19172;DHT22;9718;52.200;21.052;2023-02-11T04:14:06;2.50;99.90
19172;DHT22;9718;52.200;21.052;2023-02-11T04:16:33;2.50;99.90
19172;DHT22;9718;52.200;21.052;2023-02-11T04:19:00;2.50;99.90
19172;DHT22;9718;52.200;21.052;2023-02-11T04:21:28;2.50;99.90
19172;DHT22;9718;52.200;21.052;2023-02-11T04:23:54;2.40;99.90
19172;DHT22;9718;52.200;21.052;2023-02-11T04:26:22;2.50;99.90
19172;DHT22;9718;52.200;21.052;2023-02-11T04:28:49;2.50;99.90
19172;DHT22;9718;52.200;21.052;2023-02-11T04:31:17;2.50;99.90
19172;DHT22;9718;52.200;21.052;2023-02-11T04:33:44;2.50;99.90
19172;DHT22;9718;52.200;21.052;2023-02-11T04:36:11;2.50;99.90
19172;DHT22;9718;52.200;21.052;2023-02-11T04:38:38;2.50;99.90
19172;DHT22;9718;52.200;21.052;2023-02-11T04:41:05;2.50;99.90
19172;DHT22;9718;52.200;21.052;2023-02-11T04:43:32;2.50;99.90
19172;DHT22;9718;52.200;21.052;2023-02-11T04:46:00;2.50;99.90
19172;DHT22;9718;52.200;21.052;2023-02-11T04:48:27;2.50;99.90
19172;DHT22;9718;52.200;21.052;2023-02-11T04:50:54;2.50;99.90
19172;DHT22;9718;52.200;21.052;2023-02-11T04:53:21;2.40;99.90
19172;DHT22;9718;52.200;21.052;2023-02-11T04:55:48;2.30;99.90
19172;DHT22;9718;52.200;21.052;2023-02-11T04:58:18;2.30;99.90
19172;DHT22;9718;52.200;21.052;2023-02-11T05:00:46;2.30;99.90
19172;DHT22;9718;52.200;21.052;2023-02-11T05:03:13;2.30;99.90
19172;DHT22;9718;52.200;21.052;2023-02-11T05:05:41;2.30;99.90
19172;DHT22;9718;52.200;21.052;2023-02-11T05:08:09;2.20;99.90
19172;DHT22;9718;52.200;21.052;2023-02-11T05:10:37;2.20;99.90
19172;DHT22;9718;52.200;21.052;2023-02-11T05:13:04;2.20;99.90
19172;DHT22;9718;52.200;21.052;2023-02-11T05:15:31;2.20;99.90
19172;DHT22;9718;52.200;21.052;2023-02-11T05:17:58;2.30;99.90
19172;DHT22;9718;52.200;21.052;2023-02-11T05:20:26;2.30;99.90
19172;DHT22;9718;52.200;21.052;2023-02-11T05:22:53;2.40;99.90
19172;DHT22;9718;52.200;21.052;2023-02-11T05:25:20;2.40;99.90
19172;DHT22;9718;52.200;21.052;2023-02-11T05:27:47;2.40;99.90
19172;DHT22;9718;52.200;21.052;2023-02-11T05:30:14;2.40;99.90
19172;DHT22;9718;52.200;21.052;2023-02-11T05:32:41;2.40;99.90
19172;DHT22;9718;52.200;21.052;2023-02-11T05:35:08;2.30;99.90
19172;DHT22;9718;52.200;21.052;2023-02-11T05:37:35;2.40;99.90
19172;DHT22;9718;52.200;21.052;2023-02-11T05:40:04;2.30;99.90
19172;DHT22;9718;52.200;21.052;2023-02-11T05:42:31;2.40;99.90
19172;DHT22;9718;52.200;21.052;2023-02-11T05:44:58;2.50;99.90
19172;DHT22;9718;52.200;21.052;2023-02-11T05:47:25;2.50;99.90
19172;DHT22;9718;52.200;21.052;2023-02-11T05:49:53;2.50;99.90
19172;DHT22;9718;52.200;21.052;2023-02-11T05:52:20;2.60;99.90
19172;DHT22;9718;52.200;21.052;2023-02-11T05:54:48;2.60;99.90
19172;DHT22;9718;52.200;21.052;2023-02-11T05:57:16;2.60;99.90
19172;DHT22;9718;52.200;21.052;2023-02-11T05:59:43;2.70;99.90
19172;DHT22;9718;52.200;21.052;2023-02-11T06:02:11;2.60;99.90
19172;DHT22;9718;52.200;21.052;2023-02-11T06:04:38;2.60;99.90
19172;DHT22;9718;52.200;21.052;2023-02-11T06:07:05;2.70;99.90
19172;DHT22;9718;52.200;21.052;2023-02-11T06:09:33;2.70;99.90
19172;DHT22;9718;52.200;21.052;2023-02-11T06:12:00;2.70;99.90
19172;DHT22;9718;52.200;21.052;2023-02-11T06:14:27;2.70;99.90
19172;DHT22;9718;52.200;21.052;2023-02-11T06:16:54;2.70;99.90
19172;DHT22;9718;52.200;21.052;2023-02-11T06:19:21;2.80;99.90
19172;DHT22;9718;52.200;21.052;2023-02-11T06:21:48;2.80;99.90
19172;DHT22;9718;52.200;21.052;2023-02-11T06:24:15;2.80;99.90
19172;DHT22;9718;52.200;21.052;2023-02-11T06:27:03;2.80;99.90
19172;DHT22;9718;52.200;21.052;2023-02-11T06:29:30;2.80;99.90
19172;DHT22;9718;52.200;21.052;2023-02-11T06:31:57;2.80;99.90
19172;DHT22;9718;52.200;21.052;2023-02-11T06:34:25;2.80;99.90
19172;DHT22;9718;52.200;21.052;2023-02-11T06:36:52;2.80;99.90
19172;DHT22;9718;52.200;21.052;2023-02-11T06:39:19;2.90;99.90
19172;DHT22;9718;52.200;21.052;2023-02-11T06:41:46;2.90;99.90
19172;DHT22;9718;52.200;21.052;2023-02-11T06:44:13;2.90;99.90
19172;DHT22;9718;52.200;21.052;2023-02-11T06:46:40;3.00;99.90
19172;DHT22;9718;52.200;21.052;2023-02-11T06:49:08;2.90;99.90
19172;DHT22;9718;52.200;21.052;2023-02-11T06:51:35;3.00;99.90
19172;DHT22;9718;52.200;21.052;2023-02-11T06:54:04;3.00;99.90
19172;DHT22;9718;52.200;21.052;2023-02-11T06:56:32;3.00;99.90
19172;DHT22;9718;52.200;21.052;2023-02-11T06:58:59;3.10;99.90
19172;DHT22;9718;52.200;21.052;2023-02-11T07:01:27;3.20;99.90
19172;DHT22;9718;52.200;21.052;2023-02-11T07:03:55;3.20;99.90
19172;DHT22;9718;52.200;21.052;2023-02-11T07:06:23;3.10;99.90
19172;DHT22;9718;52.200;21.052;2023-02-11T07:08:55;3.20;99.90
19172;DHT22;9718;52.200;21.052;2023-02-11T07:11:27;3.10;99.90
19172;DHT22;9718;52.200;21.052;2023-02-11T07:13:59;3.10;99.90
19172;DHT22;9718;52.200;21.052;2023-02-11T07:16:27;3.10;99.90
19172;DHT22;9718;52.200;21.052;2023-02-11T07:18:54;3.00;99.90
19172;DHT22;9718;52.200;21.052;2023-02-11T07:21:22;3.00;99.90
19172;DHT22;9718;52.200;21.052;2023-02-11T07:23:50;3.00;99.90
19172;DHT22;9718;52.200;21.052;2023-02-11T07:26:19;3.00;99.90
19172;DHT22;9718;52.200;21.052;2023-02-11T07:28:50;3.00;99.90
19172;DHT22;9718;52.200;21.052;2023-02-11T07:31:20;2.90;99.90
19172;DHT22;9718;52.200;21.052;2023-02-11T07:33:48;2.90;99.90
19172;DHT22;9718;52.200;21.052;2023-02-11T07:36:15;2.80;99.90
19172;DHT22;9718;52.200;21.052;2023-02-11T07:38:43;2.80;99.90
19172;DHT22;9718;52.200;21.052;2023-02-11T07:41:14;2.70;99.90
19172;DHT22;9718;52.200;21.052;2023-02-11T07:43:42;2.70;99.90
19172;DHT22;9718;52.200;21.052;2023-02-11T07:46:20;2.60;99.90
19172;DHT22;9718;52.200;21.052;2023-02-11T07:48:48;2.60;99.90
19172;DHT22;9718;52.200;21.052;2023-02-11T07:53:45;2.50;99.90
19172;DHT22;9718;52.200;21.052;2023-02-11T07:56:14;2.40;99.90
19172;DHT22;9718;52.200;21.052;2023-02-11T07:58:41;2.30;99.90
19172;DHT22;9718;52.200;21.052;2023-02-11T08:01:15;2.30;99.90
19172;DHT22;9718;52.200;21.052;2023-02-11T08:03:43;2.30;99.90
19172;DHT22;9718;52.200;21.052;2023-02-11T08:06:12;2.40;99.90
19172;DHT22;9718;52.200;21.052;2023-02-11T08:08:40;2.40;99.90
19172;DHT22;9718;52.200;21.052;2023-02-11T08:11:10;2.50;99.90
19172;DHT22;9718;52.200;21.052;2023-02-11T08:13:38;2.40;99.90
19172;DHT22;9718;52.200;21.052;2023-02-11T08:16:05;2.40;99.90
19172;DHT22;9718;52.200;21.052;2023-02-11T08:18:34;2.50;99.90
19172;DHT22;9718;52.200;21.052;2023-02-11T08:21:08;2.50;99.90
19172;DHT22;9718;52.200;21.052;2023-02-11T08:23:40;2.50;99.90
19172;DHT22;9718;52.200;21.052;2023-02-11T08:26:11;2.50;99.90
19172;DHT22;9718;52.200;21.052;2023-02-11T08:28:40;2.50;99.90
19172;DHT22;9718;52.200;21.052;2023-02-11T08:31:09;2.40;99.90
19172;DHT22;9718;52.200;21.052;2023-02-11T08:33:37;2.40;99.90
19172;DHT22;9718;52.200;21.052;2023-02-11T08:36:11;2.40;99.90
19172;DHT22;9718;52.200;21.052;2023-02-11T08:38:38;2.30;99.90
19172;DHT22;9718;52.200;21.052;2023-02-11T08:41:06;2.30;99.90
19172;DHT22;9718;52.200;21.052;2023-02-11T08:43:34;2.20;99.90
19172;DHT22;9718;52.200;21.052;2023-02-11T08:46:02;2.20;99.90
19172;DHT22;9718;52.200;21.052;2023-02-11T08:48:30;2.20;99.90
19172;DHT22;9718;52.200;21.052;2023-02-11T08:50:57;2.20;99.90
19172;DHT22;9718;52.200;21.052;2023-02-11T08:53:24;2.20;99.90
19172;DHT22;9718;52.200;21.052;2023-02-11T08:55:52;2.20;99.90
19172;DHT22;9718;52.200;21.052;2023-02-11T08:58:21;2.30;99.90
19172;DHT22;9718;52.200;21.052;2023-02-11T09:00:48;2.40;99.90
19172;DHT22;9718;52.200;21.052;2023-02-11T09:03:16;2.40;99.90
19172;DHT22;9718;52.200;21.052;2023-02-11T09:05:47;2.40;99.90
19172;DHT22;9718;52.200;21.052;2023-02-11T09:08:16;2.60;99.90
19172;DHT22;9718;52.200;21.052;2023-02-11T09:10:43;2.70;99.90
19172;DHT22;9718;52.200;21.052;2023-02-11T09:13:10;2.60;99.90
19172;DHT22;9718;52.200;21.052;2023-02-11T09:15:38;2.60;99.90
19172;DHT22;9718;52.200;21.052;2023-02-11T09:18:05;2.60;99.90
19172;DHT22;9718;52.200;21.052;2023-02-11T09:20:33;2.70;99.90
19172;DHT22;9718;52.200;21.052;2023-02-11T09:23:00;2.70;99.90
19172;DHT22;9718;52.200;21.052;2023-02-11T09:25:27;2.80;99.90
19172;DHT22;9718;52.200;21.052;2023-02-11T09:27:54;2.90;99.90
19172;DHT22;9718;52.200;21.052;2023-02-11T09:30:21;2.90;99.90
19172;DHT22;9718;52.200;21.052;2023-02-11T09:32:49;2.90;99.90
19172;DHT22;9718;52.200;21.052;2023-02-11T09:35:16;2.90;99.90
19172;DHT22;9718;52.200;21.052;2023-02-11T09:37:43;2.90;99.90
19172;DHT22;9718;52.200;21.052;2023-02-11T09:40:10;3.00;99.90
19172;DHT22;9718;52.200;21.052;2023-02-11T09:45:30;3.00;99.90
19172;DHT22;9718;52.200;21.052;2023-02-11T09:48:24;2.90;99.90
19172;DHT22;9718;52.200;21.052;2023-02-11T09:50:59;2.80;99.90
19172;DHT22;9718;52.200;21.052;2023-02-11T09:53:31;2.80;99.90
19172;DHT22;9718;52.200;21.052;2023-02-11T09:56:01;2.90;99.90
19172;DHT22;9718;52.200;21.052;2023-02-11T09:58:33;2.90;99.90
19172;DHT22;9718;52.200;21.052;2023-02-11T10:06:51;2.70;99.90
19172;DHT22;9718;52.200;21.052;2023-02-11T10:09:36;2.60;99.90
19172;DHT22;9718;52.200;21.052;2023-02-11T10:15:17;2.70;99.90
19172;DHT22;9718;52.200;21.052;2023-02-11T10:24:03;2.70;99.90
19172;DHT22;9718;52.200;21.052;2023-02-11T10:26:36;2.60;99.90
19172;DHT22;9718;52.200;21.052;2023-02-11T10:29:24;2.60;99.90
19172;DHT22;9718;52.200;21.052;2023-02-11T10:31:52;2.60;99.90
19172;DHT22;9718;52.200;21.052;2023-02-11T10:34:23;2.70;99.90
19172;DHT22;9718;52.200;21.052;2023-02-11T10:36:53;2.70;99.90
19172;DHT22;9718;52.200;21.052;2023-02-11T10:39:24;2.70;99.90
19172;DHT22;9718;52.200;21.052;2023-02-11T10:41:53;2.70;99.90
19172;DHT22;9718;52.200;21.052;2023-02-11T10:44:28;2.70;99.90
19172;DHT22;9718;52.200;21.052;2023-02-11T10:47:00;2.70;99.90
19172;DHT22;9718;52.200;21.052;2023-02-11T10:49:38;2.70;99.90
19172;DHT22;9718;52.200;21.052;2023-02-11T10:52:22;2.70;99.90
19172;DHT22;9718;52.200;21.052;2023-02-11T10:55:25;2.80;99.90
19172;DHT22;9718;52.200;21.052;2023-02-11T10:58:00;2.70;99.90
19172;DHT22;9718;52.200;21.052;2023-02-11T11:00:35;2.80;99.90
19172;DHT22;9718;52.200;21.052;2023-02-11T11:03:18;2.80;99.90
19172;DHT22;9718;52.200;21.052;2023-02-11T11:05:48;2.80;99.90
19172;DHT22;9718;52.200;21.052;2023-02-11T11:08:17;2.80;99.90
19172;DHT22;9718;52.200;21.052;2023-02-11T11:11:00;2.80;99.90
19172;DHT22;9718;52.200;21.052;2023-02-11T11:13:35;2.80;99.90
19172;DHT22;9718;52.200;21.052;2023-02-11T11:16:08;2.90;99.90
19172;DHT22;9718;52.200;21.052;2023-02-11T11:18:46;3.00;99.90
19172;DHT22;9718;52.200;21.052;2023-02-11T11:21:22;3.00;99.90
19172;DHT22;9718;52.200;21.052;2023-02-11T11:23:54;3.10;99.90
19172;DHT22;9718;52.200;21.052;2023-02-11T11:26:23;3.10;99.90
19172;DHT22;9718;52.200;21.052;2023-02-11T11:29:06;3.10;99.90
19172;DHT22;9718;52.200;21.052;2023-02-11T11:31:54;3.00;99.90
19172;DHT22;9718;52.200;21.052;2023-02-11T11:34:37;3.20;99.90
19172;DHT22;9718;52.200;21.052;2023-02-11T11:37:23;3.10;99.90
19172;DHT22;9718;52.200;21.052;2023-02-11T11:40:07;3.10;99.90
19172;DHT22;9718;52.200;21.052;2023-02-11T11:42:36;3.10;99.90
19172;DHT22;9718;52.200;21.052;2023-02-11T11:50:34;3.10;99.90
19172;DHT22;9718;52.200;21.052;2023-02-11T11:55:58;3.10;99.90
19172;DHT22;9718;52.200;21.052;2023-02-11T11:58:28;3.20;99.90
19172;DHT22;9718;52.200;21.052;2023-02-11T12:07:01;3.20;99.90
19172;DHT22;9718;52.200;21.052;2023-02-11T12:15:22;3.20;99.90
19172;DHT22;9718;52.200;21.052;2023-02-11T12:23:42;3.30;99.90
19172;DHT22;9718;52.200;21.052;2023-02-11T12:26:55;3.30;99.90
19172;DHT22;9718;52.200;21.052;2023-02-11T12:29:40;3.30;99.90
19172;DHT22;9718;52.200;21.052;2023-02-11T12:43:23;3.40;99.90
19172;DHT22;9718;52.200;21.052;2023-02-11T12:51:04;3.40;99.90
19172;DHT22;9718;52.200;21.052;2023-02-11T12:56:25;3.60;99.90
19172;DHT22;9718;52.200;21.052;2023-02-11T12:58:56;3.60;99.90
19172;DHT22;9718;52.200;21.052;2023-02-11T13:06:31;3.70;99.90
19172;DHT22;9718;52.200;21.052;2023-02-11T13:09:02;3.70;99.90
19172;DHT22;9718;52.200;21.052;2023-02-11T13:11:43;3.80;99.90
19172;DHT22;9718;52.200;21.052;2023-02-11T13:14:25;3.90;99.90
19172;DHT22;9718;52.200;21.052;2023-02-11T13:16:54;3.90;99.90
19172;DHT22;9718;52.200;21.052;2023-02-11T13:19:31;3.90;99.90
19172;DHT22;9718;52.200;21.052;2023-02-11T13:24:56;3.90;99.90
19172;DHT22;9718;52.200;21.052;2023-02-11T13:32:22;3.90;99.90
19172;DHT22;9718;52.200;21.052;2023-02-11T13:37:19;4.00;99.90
19172;DHT22;9718;52.200;21.052;2023-02-11T13:43:01;4.00;99.90
19172;DHT22;9718;52.200;21.052;2023-02-11T13:45:42;4.00;99.90
19172;DHT22;9718;52.200;21.052;2023-02-11T13:48:21;4.10;99.90
19172;DHT22;9718;52.200;21.052;2023-02-11T13:50:51;4.10;99.90
19172;DHT22;9718;52.200;21.052;2023-02-11T13:53:20;4.00;99.90
19172;DHT22;9718;52.200;21.052;2023-02-11T13:55:52;3.90;99.90
19172;DHT22;9718;52.200;21.052;2023-02-11T14:00:53;4.00;99.90
19172;DHT22;9718;52.200;21.052;2023-02-11T14:03:30;3.90;99.90
19172;DHT22;9718;52.200;21.052;2023-02-11T14:06:22;3.90;99.90
19172;DHT22;9718;52.200;21.052;2023-02-11T14:11:52;3.90;99.90
19172;DHT22;9718;52.200;21.052;2023-02-11T14:14:30;3.90;99.90
19172;DHT22;9718;52.200;21.052;2023-02-11T14:22:10;3.90;99.90
19172;DHT22;9718;52.200;21.052;2023-02-11T14:24:58;3.90;99.90
19172;DHT22;9718;52.200;21.052;2023-02-11T14:27:41;3.90;99.90
19172;DHT22;9718;52.200;21.052;2023-02-11T14:39:15;4.00;99.90
19172;DHT22;9718;52.200;21.052;2023-02-11T14:41:47;4.10;99.90
19172;DHT22;9718;52.200;21.052;2023-02-11T14:44:18;4.10;99.90
19172;DHT22;9718;52.200;21.052;2023-02-11T14:46:48;4.10;99.90
19172;DHT22;9718;52.200;21.052;2023-02-11T14:49:43;4.10;99.90
19172;DHT22;9718;52.200;21.052;2023-02-11T14:52:31;4.10;99.90
19172;DHT22;9718;52.200;21.052;2023-02-11T14:55:15;4.20;99.90
19172;DHT22;9718;52.200;21.052;2023-02-11T14:57:44;4.20;99.90
19172;DHT22;9718;52.200;21.052;2023-02-11T15:00:21;4.20;99.90
19172;DHT22;9718;52.200;21.052;2023-02-11T15:02:49;4.20;99.90
19172;DHT22;9718;52.200;21.052;2023-02-11T15:05:20;4.20;99.90
19172;DHT22;9718;52.200;21.052;2023-02-11T15:10:27;4.20;99.90
19172;DHT22;9718;52.200;21.052;2023-02-11T15:12:57;4.20;99.90
19172;DHT22;9718;52.200;21.052;2023-02-11T15:15:26;4.10;99.90
19172;DHT22;9718;52.200;21.052;2023-02-11T15:17:57;4.10;99.90
19172;DHT22;9718;52.200;21.052;2023-02-11T15:20:27;4.10;99.90
19172;DHT22;9718;52.200;21.052;2023-02-11T15:22:58;4.20;99.90
19172;DHT22;9718;52.200;21.052;2023-02-11T15:25:26;4.20;99.90
19172;DHT22;9718;52.200;21.052;2023-02-11T15:27:56;4.20;99.90
19172;DHT22;9718;52.200;21.052;2023-02-11T15:30:26;4.30;99.90
19172;DHT22;9718;52.200;21.052;2023-02-11T15:32:57;4.30;99.90
19172;DHT22;9718;52.200;21.052;2023-02-11T15:35:31;4.20;99.90
19172;DHT22;9718;52.200;21.052;2023-02-11T15:38:01;4.20;99.90
19172;DHT22;9718;52.200;21.052;2023-02-11T15:40:31;4.30;99.90
19172;DHT22;9718;52.200;21.052;2023-02-11T15:43:04;4.30;99.90
19172;DHT22;9718;52.200;21.052;2023-02-11T15:45:32;4.30;99.90
19172;DHT22;9718;52.200;21.052;2023-02-11T15:48:22;4.30;99.90
19172;DHT22;9718;52.200;21.052;2023-02-11T15:50:56;4.30;99.90
19172;DHT22;9718;52.200;21.052;2023-02-11T15:53:28;4.20;99.90
19172;DHT22;9718;52.200;21.052;2023-02-11T15:56:28;4.20;99.90
19172;DHT22;9718;52.200;21.052;2023-02-11T15:58:58;4.20;99.90
19172;DHT22;9718;52.200;21.052;2023-02-11T16:01:33;4.30;99.90
19172;DHT22;9718;52.200;21.052;2023-02-11T16:04:03;4.30;99.90
19172;DHT22;9718;52.200;21.052;2023-02-11T16:06:39;4.30;99.90
19172;DHT22;9718;52.200;21.052;2023-02-11T16:17:03;4.30;99.90
19172;DHT22;9718;52.200;21.052;2023-02-11T16:19:32;4.40;99.90
19172;DHT22;9718;52.200;21.052;2023-02-11T16:22:05;4.40;99.90
19172;DHT22;9718;52.200;21.052;2023-02-11T16:24:35;4.40;99.90
19172;DHT22;9718;52.200;21.052;2023-02-11T16:27:13;4.40;99.90
19172;DHT22;9718;52.200;21.052;2023-02-11T16:29:46;4.50;99.90
19172;DHT22;9718;52.200;21.052;2023-02-11T16:32:19;4.50;99.90
19172;DHT22;9718;52.200;21.052;2023-02-11T16:34:47;4.40;99.90
19172;DHT22;9718;52.200;21.052;2023-02-11T16:37:14;4.40;99.90
19172;DHT22;9718;52.200;21.052;2023-02-11T16:39:41;4.40;99.90
19172;DHT22;9718;52.200;21.052;2023-02-11T16:42:10;4.40;99.90
19172;DHT22;9718;52.200;21.052;2023-02-11T16:44:38;4.30;99.90
19172;DHT22;9718;52.200;21.052;2023-02-11T16:47:09;4.40;99.90
19172;DHT22;9718;52.200;21.052;2023-02-11T16:49:40;4.40;99.90
19172;DHT22;9718;52.200;21.052;2023-02-11T16:52:12;4.40;99.90
19172;DHT22;9718;52.200;21.052;2023-02-11T16:54:41;4.40;99.90
19172;DHT22;9718;52.200;21.052;2023-02-11T16:57:16;4.40;99.90
19172;DHT22;9718;52.200;21.052;2023-02-11T16:59:43;4.40;99.90
19172;DHT22;9718;52.200;21.052;2023-02-11T17:02:15;4.40;99.90
19172;DHT22;9718;52.200;21.052;2023-02-11T17:04:44;4.30;99.90
19172;DHT22;9718;52.200;21.052;2023-02-11T17:07:12;4.30;99.90
19172;DHT22;9718;52.200;21.052;2023-02-11T17:09:39;4.30;99.90
19172;DHT22;9718;52.200;21.052;2023-02-11T17:12:06;4.40;99.90
19172;DHT22;9718;52.200;21.052;2023-02-11T17:14:33;4.40;99.90
19172;DHT22;9718;52.200;21.052;2023-02-11T17:17:00;4.50;99.90
19172;DHT22;9718;52.200;21.052;2023-02-11T17:19:28;4.40;99.90
19172;DHT22;9718;52.200;21.052;2023-02-11T17:21:55;4.40;99.90
19172;DHT22;9718;52.200;21.052;2023-02-11T17:24:22;4.40;99.90
19172;DHT22;9718;52.200;21.052;2023-02-11T17:26:49;4.40;99.90
19172;DHT22;9718;52.200;21.052;2023-02-11T17:29:19;4.40;99.90
19172;DHT22;9718;52.200;21.052;2023-02-11T17:31:47;4.40;99.90
19172;DHT22;9718;52.200;21.052;2023-02-11T17:34:15;4.40;99.90
19172;DHT22;9718;52.200;21.052;2023-02-11T17:36:42;4.40;99.90
19172;DHT22;9718;52.200;21.052;2023-02-11T17:39:10;4.40;99.90
19172;DHT22;9718;52.200;21.052;2023-02-11T17:41:38;4.50;99.90
19172;DHT22;9718;52.200;21.052;2023-02-11T17:44:07;4.40;99.90
19172;DHT22;9718;52.200;21.052;2023-02-11T17:46:34;4.40;99.90
19172;DHT22;9718;52.200;21.052;2023-02-11T17:49:02;4.40;99.90
19172;DHT22;9718;52.200;21.052;2023-02-11T17:51:37;4.40;99.90
19172;DHT22;9718;52.200;21.052;2023-02-11T17:54:16;4.50;99.90
19172;DHT22;9718;52.200;21.052;2023-02-11T17:56:44;4.50;99.90
19172;DHT22;9718;52.200;21.052;2023-02-11T17:59:13;4.60;99.90
19172;DHT22;9718;52.200;21.052;2023-02-11T18:01:40;4.80;99.90
19172;DHT22;9718;52.200;21.052;2023-02-11T18:04:12;4.70;99.90
19172;DHT22;9718;52.200;21.052;2023-02-11T18:06:39;4.60;99.90
19172;DHT22;9718;52.200;21.052;2023-02-11T18:09:07;4.70;99.90
19172;DHT22;9718;52.200;21.052;2023-02-11T18:11:36;4.70;99.90
19172;DHT22;9718;52.200;21.052;2023-02-11T18:14:04;4.70;99.90
19172;DHT22;9718;52.200;21.052;2023-02-11T18:16:34;4.70;99.90
19172;DHT22;9718;52.200;21.052;2023-02-11T18:19:05;4.70;99.90
19172;DHT22;9718;52.200;21.052;2023-02-11T18:21:33;4.70;99.90
19172;DHT22;9718;52.200;21.052;2023-02-11T18:24:00;4.60;99.90
19172;DHT22;9718;52.200;21.052;2023-02-11T18:26:33;4.60;99.90
19172;DHT22;9718;52.200;21.052;2023-02-11T18:29:01;4.70;99.90
19172;DHT22;9718;52.200;21.052;2023-02-11T18:31:29;4.80;99.90
19172;DHT22;9718;52.200;21.052;2023-02-11T18:33:57;4.90;99.90
19172;DHT22;9718;52.200;21.052;2023-02-11T18:36:24;4.90;99.90
19172;DHT22;9718;52.200;21.052;2023-02-11T18:38:51;4.90;99.90
19172;DHT22;9718;52.200;21.052;2023-02-11T18:41:19;5.10;99.90
19172;DHT22;9718;52.200;21.052;2023-02-11T18:43:47;5.00;99.90